Robbins, CA (95676)

7:07 AM PDT on August 29, 2014 (GMT -0700)
Arboga, CA | Change Station
CLOSE
Current Station
Personal Weather Station
Location: Olivehurst, CA
Elevation: 49 ft
Nearby Weather Stations

Elev 49 ft 39.05 °N, 121.58 °W | Updated 14 seconds ago

Partly Cloudy
Partly Cloudy
61.5 °F
Feels Like 61.5 °F
N
2.2
Wind Variable Wind from SE

Today
High -- | Low -- °F
--% Chance of Precip.
Yesterday
High -- | Low -- °F
Precip. -- in
6:33 AM 7:41 PM
Waxing Crescent, 14% visible
Pressure 29.88 in
Visibility 10.0 miles
Clouds Mostly Cloudy 20000 ft
Dew Point 58 °F
Humidity 87%
Rainfall 0.00 in
Snow Depth Not available.
UV 0 out of 12
Pollen 8.60 out of 12
Ozone Good
PM2.5 Moderate
Flu Activity Not available.
METAR KSMF 291353Z 16007KT 10SM BKN200 16/13 A2988 RMK AO2 SLP117 T01560128

More Conditions Fewer Conditions

Pressure 29.88 in
Visibility 10.0 miles
Clouds Mostly Cloudy 20000 ft
Dew Point 58 °F
Humidity 87%
Rainfall 0.00 in
Snow Depth Not available.
UV 0 out of 12
Pollen 8.60 out of 12
Ozone Good
PM2.5 Moderate
Flu Activity Not available.
METAR KSMF 291353Z 16007KT 10SM BKN200 16/13 A2988 RMK AO2 SLP117 T01560128

More Conditions Fewer Conditions

10-Day Weather Forecast

Almanac

Astronomy

Aug. 29, 2014 Rise Set
Actual Time 6:33 AM PDT 7:41 PM PDT
Civil Twilight 6:05 AM PDT 8:08 PM PDT
Nautical Twilight 5:32 AM PDT 8:41 PM PDT
Astronomical Twilight 4:58 AM PDT 9:15 PM PDT
Moon 10:25 AM PDT 9:45 PM PDT
Length of Visible Light 14h 03m
Length of Day
13h 08m
Tomorrow will be 2m 24s shorter.
Waxing Crescent, 14% of the Moon is Illuminated
Today
Waxing Crescent
Sep 2
First Quarter
Sep 8
Full
Sep 15
Last Quarter
Sep 24
New

Today's Extremes

State Highs State Lows

Community

WunderPhotos

Upload Photos

1,748,240 photos uploaded!

Nearby

Air Quality

  Air Quality AQ Index Pollutant
Yesterday Moderate
OZONE
Yesterday Good
PM2.5
Current Moderate
PM2.5
Current Good
OZONE
Friday Good
OZONE
Saturday Good
OZONE
Sunday Good
OZONE
Monday Moderate
OZONE
Tuesday Good
OZONE

Snow Depth

Station Depth Elevation
CSS Lab 3 in 6900 ft
Squaw Valley 0 in 8200 ft
Rubicon #2 0 in 7500 ft
Tahoe City Cross 0 in 6750 ft
Independence Camp 0 in 7000 ft

Earthquake Activity

City Distance Mag. Time & Date
Napa, California 55 miles 2.6 11:57 AM PDT
2014-08-27
The Geysers, California 60 miles 2.6 7:42 AM PDT
2014-08-27
Minimum magnitude displayed is 2.5.

Coastal Water Temperatures

Place Temperature
No Stations Reporting

Nearby Weather Stations